sensor_id;sensor_type;location;lat;lon;timestamp;P1;durP1;ratioP1;P2;durP2;ratioP2
7523;SDS011;3803;51.666;7.630;2023-11-18T00:00:34;16.65;;;11.05;;
7523;SDS011;3803;51.666;7.630;2023-11-18T00:00:54;16.75;;;11.48;;
7523;SDS011;3803;51.666;7.630;2023-11-18T00:01:15;17.37;;;11.50;;
7523;SDS011;3803;51.666;7.630;2023-11-18T00:01:36;17.95;;;11.07;;
7523;SDS011;3803;51.666;7.630;2023-11-18T00:01:57;19.75;;;11.18;;
7523;SDS011;3803;51.666;7.630;2023-11-18T00:02:18;19.02;;;11.07;;
7523;SDS011;3803;51.666;7.630;2023-11-18T00:02:38;18.50;;;11.40;;
7523;SDS011;3803;51.666;7.630;2023-11-18T00:02:59;17.83;;;11.23;;
7523;SDS011;3803;51.666;7.630;2023-11-18T00:03:20;18.02;;;11.15;;
7523;SDS011;3803;51.666;7.630;2023-11-18T00:03:40;18.03;;;11.60;;
7523;SDS011;3803;51.666;7.630;2023-11-18T00:04:01;18.23;;;11.15;;
7523;SDS011;3803;51.666;7.630;2023-11-18T00:04:22;20.40;;;11.75;;
7523;SDS011;3803;51.666;7.630;2023-11-18T00:04:43;21.48;;;11.65;;
7523;SDS011;3803;51.666;7.630;2023-11-18T00:05:16;20.92;;;11.15;;
7523;SDS011;3803;51.666;7.630;2023-11-18T00:05:37;18.83;;;10.50;;
7523;SDS011;3803;51.666;7.630;2023-11-18T00:05:58;16.67;;;10.52;;
7523;SDS011;3803;51.666;7.630;2023-11-18T00:06:20;19.88;;;10.75;;
7523;SDS011;3803;51.666;7.630;2023-11-18T00:06:43;24.50;;;11.40;;
7523;SDS011;3803;51.666;7.630;2023-11-18T00:07:05;22.40;;;11.48;;
7523;SDS011;3803;51.666;7.630;2023-11-18T00:07:26;20.50;;;11.30;;
7523;SDS011;3803;51.666;7.630;2023-11-18T00:07:47;19.80;;;11.70;;
7523;SDS011;3803;51.666;7.630;2023-11-18T00:08:07;20.30;;;11.37;;
7523;SDS011;3803;51.666;7.630;2023-11-18T00:08:28;17.73;;;11.10;;
7523;SDS011;3803;51.666;7.630;2023-11-18T00:08:49;16.25;;;10.98;;
7523;SDS011;3803;51.666;7.630;2023-11-18T00:09:10;17.50;;;11.57;;
7523;SDS011;3803;51.666;7.630;2023-11-18T00:09:33;18.95;;;11.10;;
7523;SDS011;3803;51.666;7.630;2023-11-18T00:09:53;21.10;;;11.43;;
7523;SDS011;3803;51.666;7.630;2023-11-18T00:10:14;21.55;;;11.35;;
7523;SDS011;3803;51.666;7.630;2023-11-18T00:10:35;17.83;;;11.18;;
7523;SDS011;3803;51.666;7.630;2023-11-18T00:10:55;19.90;;;10.90;;
7523;SDS011;3803;51.666;7.630;2023-11-18T00:11:16;20.70;;;11.25;;
7523;SDS011;3803;51.666;7.630;2023-11-18T00:11:36;23.83;;;11.23;;
7523;SDS011;3803;51.666;7.630;2023-11-18T00:11:58;21.38;;;11.20;;
7523;SDS011;3803;51.666;7.630;2023-11-18T00:12:18;18.95;;;10.85;;
7523;SDS011;3803;51.666;7.630;2023-11-18T00:12:39;15.47;;;10.70;;
7523;SDS011;3803;51.666;7.630;2023-11-18T00:13:02;17.17;;;10.63;;
7523;SDS011;3803;51.666;7.630;2023-11-18T00:13:24;20.15;;;10.98;;
7523;SDS011;3803;51.666;7.630;2023-11-18T00:13:46;18.85;;;10.80;;
7523;SDS011;3803;51.666;7.630;2023-11-18T00:14:07;18.58;;;10.40;;
7523;SDS011;3803;51.666;7.630;2023-11-18T00:14:28;17.85;;;10.60;;
7523;SDS011;3803;51.666;7.630;2023-11-18T00:14:48;18.70;;;10.40;;
7523;SDS011;3803;51.666;7.630;2023-11-18T00:15:09;17.90;;;10.77;;
7523;SDS011;3803;51.666;7.630;2023-11-18T00:15:31;14.55;;;9.85;;
7523;SDS011;3803;51.666;7.630;2023-11-18T00:15:54;15.57;;;9.90;;
7523;SDS011;3803;51.666;7.630;2023-11-18T00:16:15;16.95;;;10.30;;
7523;SDS011;3803;51.666;7.630;2023-11-18T00:16:37;18.48;;;11.07;;
7523;SDS011;3803;51.666;7.630;2023-11-18T00:16:59;18.65;;;11.55;;
7523;SDS011;3803;51.666;7.630;2023-11-18T00:17:19;18.25;;;10.90;;
7523;SDS011;3803;51.666;7.630;2023-11-18T00:17:40;18.88;;;11.02;;
7523;SDS011;3803;51.666;7.630;2023-11-18T00:18:01;19.42;;;11.38;;
7523;SDS011;3803;51.666;7.630;2023-11-18T00:18:22;19.38;;;11.40;;
7523;SDS011;3803;51.666;7.630;2023-11-18T00:18:42;21.00;;;11.80;;
7523;SDS011;3803;51.666;7.630;2023-11-18T00:19:03;19.55;;;11.93;;
7523;SDS011;3803;51.666;7.630;2023-11-18T00:19:29;18.83;;;12.02;;
7523;SDS011;3803;51.666;7.630;2023-11-18T00:19:53;16.15;;;10.98;;
7523;SDS011;3803;51.666;7.630;2023-11-18T00:20:14;18.65;;;11.25;;
7523;SDS011;3803;51.666;7.630;2023-11-18T00:20:36;21.17;;;11.30;;
7523;SDS011;3803;51.666;7.630;2023-11-18T00:20:56;18.73;;;10.80;;
7523;SDS011;3803;51.666;7.630;2023-11-18T00:21:17;19.63;;;10.40;;
7523;SDS011;3803;51.666;7.630;2023-11-18T00:21:38;21.05;;;10.95;;
7523;SDS011;3803;51.666;7.630;2023-11-18T00:21:58;26.17;;;11.83;;
7523;SDS011;3803;51.666;7.630;2023-11-18T00:22:19;25.08;;;12.10;;
7523;SDS011;3803;51.666;7.630;2023-11-18T00:22:40;24.25;;;12.02;;
7523;SDS011;3803;51.666;7.630;2023-11-18T00:23:01;20.88;;;11.73;;
7523;SDS011;3803;51.666;7.630;2023-11-18T00:23:24;19.27;;;11.07;;
7523;SDS011;3803;51.666;7.630;2023-11-18T00:23:46;18.88;;;10.90;;
7523;SDS011;3803;51.666;7.630;2023-11-18T00:24:08;16.85;;;10.30;;
7523;SDS011;3803;51.666;7.630;2023-11-18T00:24:29;16.10;;;10.77;;
7523;SDS011;3803;51.666;7.630;2023-11-18T00:24:49;17.60;;;11.37;;
7523;SDS011;3803;51.666;7.630;2023-11-18T00:25:10;19.40;;;11.32;;
7523;SDS011;3803;51.666;7.630;2023-11-18T00:25:34;18.25;;;10.80;;
7523;SDS011;3803;51.666;7.630;2023-11-18T00:25:56;17.63;;;10.75;;
7523;SDS011;3803;51.666;7.630;2023-11-18T00:26:17;17.40;;;10.57;;
7523;SDS011;3803;51.666;7.630;2023-11-18T00:26:41;20.48;;;11.07;;
7523;SDS011;3803;51.666;7.630;2023-11-18T00:27:02;17.10;;;10.88;;
7523;SDS011;3803;51.666;7.630;2023-11-18T00:27:26;19.17;;;11.13;;
7523;SDS011;3803;51.666;7.630;2023-11-18T00:27:47;24.70;;;11.60;;
7523;SDS011;3803;51.666;7.630;2023-11-18T00:28:08;25.23;;;11.52;;
7523;SDS011;3803;51.666;7.630;2023-11-18T00:28:29;20.55;;;11.02;;
7523;SDS011;3803;51.666;7.630;2023-11-18T00:28:50;20.05;;;11.18;;
7523;SDS011;3803;51.666;7.630;2023-11-18T00:29:11;21.50;;;11.63;;
7523;SDS011;3803;51.666;7.630;2023-11-18T00:29:32;21.90;;;11.30;;
7523;SDS011;3803;51.666;7.630;2023-11-18T00:29:53;16.88;;;10.00;;
7523;SDS011;3803;51.666;7.630;2023-11-18T00:30:14;15.77;;;9.97;;
7523;SDS011;3803;51.666;7.630;2023-11-18T00:30:35;17.75;;;10.43;;
7523;SDS011;3803;51.666;7.630;2023-11-18T00:30:56;18.23;;;10.60;;
7523;SDS011;3803;51.666;7.630;2023-11-18T00:31:16;19.75;;;11.23;;
7523;SDS011;3803;51.666;7.630;2023-11-18T00:31:37;18.67;;;11.20;;
7523;SDS011;3803;51.666;7.630;2023-11-18T00:31:58;19.17;;;11.47;;
7523;SDS011;3803;51.666;7.630;2023-11-18T00:32:19;18.38;;;10.98;;
7523;SDS011;3803;51.666;7.630;2023-11-18T00:32:39;19.17;;;11.37;;
7523;SDS011;3803;51.666;7.630;2023-11-18T00:33:00;17.30;;;10.40;;
7523;SDS011;3803;51.666;7.630;2023-11-18T00:33:21;19.50;;;10.90;;
7523;SDS011;3803;51.666;7.630;2023-11-18T00:33:42;20.77;;;10.63;;
7523;SDS011;3803;51.666;7.630;2023-11-18T00:34:03;21.63;;;11.00;;
7523;SDS011;3803;51.666;7.630;2023-11-18T00:34:24;21.50;;;10.75;;
7523;SDS011;3803;51.666;7.630;2023-11-18T00:34:46;18.65;;;10.45;;
7523;SDS011;3803;51.666;7.630;2023-11-18T00:35:06;17.08;;;10.90;;
7523;SDS011;3803;51.666;7.630;2023-11-18T00:35:28;17.67;;;11.80;;
7523;SDS011;3803;51.666;7.630;2023-11-18T00:35:52;17.67;;;11.73;;
7523;SDS011;3803;51.666;7.630;2023-11-18T00:36:12;21.00;;;11.90;;
7523;SDS011;3803;51.666;7.630;2023-11-18T00:36:33;21.90;;;11.32;;
7523;SDS011;3803;51.666;7.630;2023-11-18T00:36:54;19.60;;;10.73;;
7523;SDS011;3803;51.666;7.630;2023-11-18T00:37:18;20.65;;;10.13;;
7523;SDS011;3803;51.666;7.630;2023-11-18T00:37:39;22.70;;;9.73;;
7523;SDS011;3803;51.666;7.630;2023-11-18T00:38:00;25.35;;;10.48;;
7523;SDS011;3803;51.666;7.630;2023-11-18T00:38:21;26.33;;;11.30;;
7523;SDS011;3803;51.666;7.630;2023-11-18T00:38:43;21.95;;;11.63;;
7523;SDS011;3803;51.666;7.630;2023-11-18T00:39:03;18.80;;;11.10;;
7523;SDS011;3803;51.666;7.630;2023-11-18T00:39:24;17.42;;;10.60;;
7523;SDS011;3803;51.666;7.630;2023-11-18T00:39:45;19.30;;;10.23;;
7523;SDS011;3803;51.666;7.630;2023-11-18T00:40:07;19.42;;;9.82;;
7523;SDS011;3803;51.666;7.630;2023-11-18T00:40:29;18.70;;;9.80;;
7523;SDS011;3803;51.666;7.630;2023-11-18T00:40:50;15.25;;;9.45;;
7523;SDS011;3803;51.666;7.630;2023-11-18T00:41:11;17.20;;;10.70;;
7523;SDS011;3803;51.666;7.630;2023-11-18T00:41:33;21.98;;;11.65;;
7523;SDS011;3803;51.666;7.630;2023-11-18T00:41:54;22.42;;;11.90;;
7523;SDS011;3803;51.666;7.630;2023-11-18T00:42:16;21.83;;;11.00;;
7523;SDS011;3803;51.666;7.630;2023-11-18T00:42:36;19.45;;;10.80;;
7523;SDS011;3803;51.666;7.630;2023-11-18T00:42:59;20.55;;;11.25;;
7523;SDS011;3803;51.666;7.630;2023-11-18T00:43:20;19.13;;;11.70;;
7523;SDS011;3803;51.666;7.630;2023-11-18T00:43:40;19.03;;;11.80;;
7523;SDS011;3803;51.666;7.630;2023-11-18T00:44:01;21.35;;;11.32;;
7523;SDS011;3803;51.666;7.630;2023-11-18T00:44:22;20.67;;;11.25;;
7523;SDS011;3803;51.666;7.630;2023-11-18T00:44:42;20.73;;;11.70;;
7523;SDS011;3803;51.666;7.630;2023-11-18T00:45:03;19.05;;;12.27;;
7523;SDS011;3803;51.666;7.630;2023-11-18T00:45:24;20.67;;;13.15;;
7523;SDS011;3803;51.666;7.630;2023-11-18T00:45:45;20.03;;;12.57;;
7523;SDS011;3803;51.666;7.630;2023-11-18T00:46:05;18.92;;;12.18;;
7523;SDS011;3803;51.666;7.630;2023-11-18T00:46:26;20.52;;;12.05;;
7523;SDS011;3803;51.666;7.630;2023-11-18T00:46:47;19.77;;;11.77;;
7523;SDS011;3803;51.666;7.630;2023-11-18T00:47:07;19.50;;;11.80;;
7523;SDS011;3803;51.666;7.630;2023-11-18T00:47:28;17.00;;;11.43;;
7523;SDS011;3803;51.666;7.630;2023-11-18T00:47:49;17.88;;;11.50;;
7523;SDS011;3803;51.666;7.630;2023-11-18T00:48:09;17.85;;;11.52;;
7523;SDS011;3803;51.666;7.630;2023-11-18T00:48:30;18.97;;;11.30;;
7523;SDS011;3803;51.666;7.630;2023-11-18T00:48:51;20.83;;;11.55;;
7523;SDS011;3803;51.666;7.630;2023-11-18T00:49:12;20.17;;;11.70;;
7523;SDS011;3803;51.666;7.630;2023-11-18T00:49:33;20.65;;;11.68;;
7523;SDS011;3803;51.666;7.630;2023-11-18T00:49:55;20.60;;;11.63;;
7523;SDS011;3803;51.666;7.630;2023-11-18T00:50:15;20.70;;;11.43;;
7523;SDS011;3803;51.666;7.630;2023-11-18T00:50:36;18.67;;;11.30;;
7523;SDS011;3803;51.666;7.630;2023-11-18T00:50:56;18.50;;;11.40;;
7523;SDS011;3803;51.666;7.630;2023-11-18T00:51:17;21.17;;;11.70;;
7523;SDS011;3803;51.666;7.630;2023-11-18T00:51:39;20.30;;;11.57;;
7523;SDS011;3803;51.666;7.630;2023-11-18T00:52:01;20.38;;;11.98;;
7523;SDS011;3803;51.666;7.630;2023-11-18T00:52:23;19.90;;;12.07;;
7523;SDS011;3803;51.666;7.630;2023-11-18T00:52:45;20.50;;;11.98;;
7523;SDS011;3803;51.666;7.630;2023-11-18T00:53:08;18.42;;;11.57;;
7523;SDS011;3803;51.666;7.630;2023-11-18T00:53:30;16.95;;;11.30;;
7523;SDS011;3803;51.666;7.630;2023-11-18T00:53:50;20.97;;;12.00;;
7523;SDS011;3803;51.666;7.630;2023-11-18T00:54:11;22.92;;;12.40;;
7523;SDS011;3803;51.666;7.630;2023-11-18T00:54:32;22.95;;;12.00;;
7523;SDS011;3803;51.666;7.630;2023-11-18T00:54:54;21.52;;;11.63;;
7523;SDS011;3803;51.666;7.630;2023-11-18T00:55:15;24.15;;;11.88;;
7523;SDS011;3803;51.666;7.630;2023-11-18T00:55:38;25.05;;;12.70;;
7523;SDS011;3803;51.666;7.630;2023-11-18T00:55:59;26.17;;;12.93;;
7523;SDS011;3803;51.666;7.630;2023-11-18T00:56:21;22.92;;;12.60;;
7523;SDS011;3803;51.666;7.630;2023-11-18T00:56:42;22.50;;;12.40;;
7523;SDS011;3803;51.666;7.630;2023-11-18T00:57:02;18.30;;;11.90;;
7523;SDS011;3803;51.666;7.630;2023-11-18T00:57:23;19.70;;;11.98;;
7523;SDS011;3803;51.666;7.630;2023-11-18T00:57:44;17.90;;;11.93;;
7523;SDS011;3803;51.666;7.630;2023-11-18T00:58:05;17.80;;;11.65;;
7523;SDS011;3803;51.666;7.630;2023-11-18T00:58:26;15.23;;;10.93;;
7523;SDS011;3803;51.666;7.630;2023-11-18T00:58:49;15.30;;;10.70;;
7523;SDS011;3803;51.666;7.630;2023-11-18T00:59:10;17.65;;;11.32;;
7523;SDS011;3803;51.666;7.630;2023-11-18T00:59:30;19.20;;;11.53;;
7523;SDS011;3803;51.666;7.630;2023-11-18T00:59:51;20.42;;;11.52;;
7523;SDS011;3803;51.666;7.630;2023-11-18T01:00:12;19.08;;;11.13;;
7523;SDS011;3803;51.666;7.630;2023-11-18T01:00:36;22.25;;;11.80;;
7523;SDS011;3803;51.666;7.630;2023-11-18T01:00:57;24.13;;;12.10;;
7523;SDS011;3803;51.666;7.630;2023-11-18T01:01:17;22.80;;;12.43;;
7523;SDS011;3803;51.666;7.630;2023-11-18T01:01:39;21.63;;;11.60;;
7523;SDS011;3803;51.666;7.630;2023-11-18T01:02:00;19.83;;;11.85;;
7523;SDS011;3803;51.666;7.630;2023-11-18T01:02:24;18.30;;;11.80;;
7523;SDS011;3803;51.666;7.630;2023-11-18T01:02:44;19.00;;;12.00;;
7523;SDS011;3803;51.666;7.630;2023-11-18T01:03:08;18.85;;;11.18;;
7523;SDS011;3803;51.666;7.630;2023-11-18T01:03:30;18.63;;;11.00;;
7523;SDS011;3803;51.666;7.630;2023-11-18T01:03:51;24.23;;;11.90;;
7523;SDS011;3803;51.666;7.630;2023-11-18T01:04:12;25.02;;;12.00;;
7523;SDS011;3803;51.666;7.630;2023-11-18T01:04:33;24.85;;;12.07;;
7523;SDS011;3803;51.666;7.630;2023-11-18T01:04:54;21.05;;;12.02;;
7523;SDS011;3803;51.666;7.630;2023-11-18T01:05:15;22.05;;;12.65;;
7523;SDS011;3803;51.666;7.630;2023-11-18T01:05:36;21.98;;;12.75;;
7523;SDS011;3803;51.666;7.630;2023-11-18T01:05:57;20.80;;;12.35;;
7523;SDS011;3803;51.666;7.630;2023-11-18T01:06:18;19.42;;;11.70;;
7523;SDS011;3803;51.666;7.630;2023-11-18T01:06:40;18.60;;;11.13;;
7523;SDS011;3803;51.666;7.630;2023-11-18T01:07:03;21.90;;;11.82;;
7523;SDS011;3803;51.666;7.630;2023-11-18T01:07:23;21.50;;;11.43;;
7523;SDS011;3803;51.666;7.630;2023-11-18T01:07:44;20.77;;;11.52;;
7523;SDS011;3803;51.666;7.630;2023-11-18T01:08:05;20.80;;;12.13;;
7523;SDS011;3803;51.666;7.630;2023-11-18T01:08:25;21.67;;;12.68;;
7523;SDS011;3803;51.666;7.630;2023-11-18T01:08:46;21.58;;;12.50;;
7523;SDS011;3803;51.666;7.630;2023-11-18T01:09:07;19.65;;;12.13;;
7523;SDS011;3803;51.666;7.630;2023-11-18T01:09:29;19.77;;;12.02;;
7523;SDS011;3803;51.666;7.630;2023-11-18T01:09:56;21.77;;;12.20;;
7523;SDS011;3803;51.666;7.630;2023-11-18T01:10:17;23.05;;;12.32;;
7523;SDS011;3803;51.666;7.630;2023-11-18T01:10:40;18.60;;;11.52;;
7523;SDS011;3803;51.666;7.630;2023-11-18T01:11:00;18.95;;;12.40;;
7523;SDS011;3803;51.666;7.630;2023-11-18T01:11:21;21.85;;;12.70;;
7523;SDS011;3803;51.666;7.630;2023-11-18T01:11:42;22.75;;;12.75;;
7523;SDS011;3803;51.666;7.630;2023-11-18T01:12:03;22.47;;;12.13;;
7523;SDS011;3803;51.666;7.630;2023-11-18T01:12:24;20.00;;;12.02;;
7523;SDS011;3803;51.666;7.630;2023-11-18T01:12:45;20.70;;;12.05;;
7523;SDS011;3803;51.666;7.630;2023-11-18T01:13:06;22.27;;;11.75;;
7523;SDS011;3803;51.666;7.630;2023-11-18T01:13:27;21.83;;;12.50;;
7523;SDS011;3803;51.666;7.630;2023-11-18T01:13:48;19.17;;;12.05;;
7523;SDS011;3803;51.666;7.630;2023-11-18T01:14:09;16.83;;;11.18;;
7523;SDS011;3803;51.666;7.630;2023-11-18T01:14:30;16.40;;;10.80;;
7523;SDS011;3803;51.666;7.630;2023-11-18T01:14:51;20.05;;;12.15;;
7523;SDS011;3803;51.666;7.630;2023-11-18T01:15:11;22.05;;;13.10;;
7523;SDS011;3803;51.666;7.630;2023-11-18T01:15:32;20.90;;;11.98;;
7523;SDS011;3803;51.666;7.630;2023-11-18T01:15:53;19.60;;;11.50;;
7523;SDS011;3803;51.666;7.630;2023-11-18T01:16:14;16.55;;;10.65;;
7523;SDS011;3803;51.666;7.630;2023-11-18T01:16:35;18.80;;;11.40;;
7523;SDS011;3803;51.666;7.630;2023-11-18T01:16:56;22.77;;;11.70;;
7523;SDS011;3803;51.666;7.630;2023-11-18T01:17:16;25.50;;;12.10;;
7523;SDS011;3803;51.666;7.630;2023-11-18T01:17:37;23.17;;;11.48;;
7523;SDS011;3803;51.666;7.630;2023-11-18T01:17:58;19.20;;;11.07;;
7523;SDS011;3803;51.666;7.630;2023-11-18T01:18:19;19.30;;;11.63;;
7523;SDS011;3803;51.666;7.630;2023-11-18T01:18:39;19.52;;;11.70;;
7523;SDS011;3803;51.666;7.630;2023-11-18T01:19:00;20.00;;;11.50;;
7523;SDS011;3803;51.666;7.630;2023-11-18T01:19:21;19.90;;;11.07;;
7523;SDS011;3803;51.666;7.630;2023-11-18T01:19:42;21.52;;;11.07;;
7523;SDS011;3803;51.666;7.630;2023-11-18T01:20:03;21.20;;;11.10;;
7523;SDS011;3803;51.666;7.630;2023-11-18T01:20:30;20.52;;;11.10;;
7523;SDS011;3803;51.666;7.630;2023-11-18T01:20:50;19.97;;;12.00;;
7523;SDS011;3803;51.666;7.630;2023-11-18T01:21:11;18.40;;;12.02;;
7523;SDS011;3803;51.666;7.630;2023-11-18T01:21:32;19.95;;;12.63;;
7523;SDS011;3803;51.666;7.630;2023-11-18T01:21:53;22.20;;;12.18;;
7523;SDS011;3803;51.666;7.630;2023-11-18T01:22:13;21.88;;;11.43;;
7523;SDS011;3803;51.666;7.630;2023-11-18T01:22:34;24.53;;;10.90;;
7523;SDS011;3803;51.666;7.630;2023-11-18T01:22:54;23.50;;;11.43;;
7523;SDS011;3803;51.666;7.630;2023-11-18T01:23:15;26.00;;;11.65;;
7523;SDS011;3803;51.666;7.630;2023-11-18T01:23:35;22.43;;;11.60;;
7523;SDS011;3803;51.666;7.630;2023-11-18T01:23:56;20.85;;;10.85;;
7523;SDS011;3803;51.666;7.630;2023-11-18T01:24:17;18.67;;;11.07;;
7523;SDS011;3803;51.666;7.630;2023-11-18T01:24:38;18.85;;;12.13;;
7523;SDS011;3803;51.666;7.630;2023-11-18T01:25:00;21.15;;;11.90;;
7523;SDS011;3803;51.666;7.630;2023-11-18T01:25:22;21.00;;;11.80;;
7523;SDS011;3803;51.666;7.630;2023-11-18T01:25:43;18.88;;;10.73;;
7523;SDS011;3803;51.666;7.630;2023-11-18T01:26:05;15.85;;;10.60;;
7523;SDS011;3803;51.666;7.630;2023-11-18T01:26:25;15.35;;;10.88;;
7523;SDS011;3803;51.666;7.630;2023-11-18T01:26:47;15.13;;;11.40;;
7523;SDS011;3803;51.666;7.630;2023-11-18T01:27:08;16.80;;;11.83;;
7523;SDS011;3803;51.666;7.630;2023-11-18T01:27:30;24.05;;;12.07;;
7523;SDS011;3803;51.666;7.630;2023-11-18T01:27:50;23.70;;;11.33;;
7523;SDS011;3803;51.666;7.630;2023-11-18T01:28:11;22.90;;;11.50;;
7523;SDS011;3803;51.666;7.630;2023-11-18T01:28:33;14.75;;;10.65;;
7523;SDS011;3803;51.666;7.630;2023-11-18T01:29:01;16.67;;;12.07;;
7523;SDS011;3803;51.666;7.630;2023-11-18T01:29:23;16.98;;;11.63;;
7523;SDS011;3803;51.666;7.630;2023-11-18T01:29:44;20.03;;;12.00;;
7523;SDS011;3803;51.666;7.630;2023-11-18T01:30:07;18.35;;;11.00;;
7523;SDS011;3803;51.666;7.630;2023-11-18T01:30:28;18.50;;;11.30;;
7523;SDS011;3803;51.666;7.630;2023-11-18T01:30:48;16.37;;;10.80;;
7523;SDS011;3803;51.666;7.630;2023-11-18T01:31:09;20.17;;;11.55;;
7523;SDS011;3803;51.666;7.630;2023-11-18T01:31:31;19.30;;;11.68;;
7523;SDS011;3803;51.666;7.630;2023-11-18T01:31:52;21.58;;;11.90;;
7523;SDS011;3803;51.666;7.630;2023-11-18T01:32:16;17.90;;;11.23;;
7523;SDS011;3803;51.666;7.630;2023-11-18T01:32:39;18.17;;;11.23;;
7523;SDS011;3803;51.666;7.630;2023-11-18T01:33:02;16.85;;;11.40;;
7523;SDS011;3803;51.666;7.630;2023-11-18T01:33:24;18.08;;;11.60;;
7523;SDS011;3803;51.666;7.630;2023-11-18T01:33:45;19.55;;;12.13;;
7523;SDS011;3803;51.666;7.630;2023-11-18T01:34:07;22.02;;;12.65;;
7523;SDS011;3803;51.666;7.630;2023-11-18T01:34:28;25.13;;;12.40;;
7523;SDS011;3803;51.666;7.630;2023-11-18T01:34:49;26.02;;;12.70;;
7523;SDS011;3803;51.666;7.630;2023-11-18T01:35:10;24.15;;;12.98;;
7523;SDS011;3803;51.666;7.630;2023-11-18T01:35:31;21.25;;;13.27;;
7523;SDS011;3803;51.666;7.630;2023-11-18T01:35:52;18.10;;;12.65;;
7523;SDS011;3803;51.666;7.630;2023-11-18T01:36:13;20.52;;;12.05;;
7523;SDS011;3803;51.666;7.630;2023-11-18T01:36:33;24.90;;;12.98;;
7523;SDS011;3803;51.666;7.630;2023-11-18T01:36:54;28.45;;;13.50;;
7523;SDS011;3803;51.666;7.630;2023-11-18T01:37:18;27.13;;;13.18;;
7523;SDS011;3803;51.666;7.630;2023-11-18T01:37:38;23.83;;;12.70;;
7523;SDS011;3803;51.666;7.630;2023-11-18T01:37:59;25.15;;;12.77;;
7523;SDS011;3803;51.666;7.630;2023-11-18T01:38:19;23.40;;;12.43;;
7523;SDS011;3803;51.666;7.630;2023-11-18T01:38:40;22.17;;;12.37;;
7523;SDS011;3803;51.666;7.630;2023-11-18T01:39:01;20.87;;;11.73;;
7523;SDS011;3803;51.666;7.630;2023-11-18T01:39:22;19.27;;;11.82;;
7523;SDS011;3803;51.666;7.630;2023-11-18T01:39:44;18.15;;;11.30;;
7523;SDS011;3803;51.666;7.630;2023-11-18T01:40:06;19.05;;;11.35;;
7523;SDS011;3803;51.666;7.630;2023-11-18T01:40:28;19.75;;;11.52;;
7523;SDS011;3803;51.666;7.630;2023-11-18T01:40:51;20.92;;;12.45;;
7523;SDS011;3803;51.666;7.630;2023-11-18T01:41:13;19.73;;;11.95;;
7523;SDS011;3803;51.666;7.630;2023-11-18T01:41:34;21.40;;;11.60;;
7523;SDS011;3803;51.666;7.630;2023-11-18T01:41:55;28.15;;;11.80;;
7523;SDS011;3803;51.666;7.630;2023-11-18T01:42:19;29.13;;;12.40;;
7523;SDS011;3803;51.666;7.630;2023-11-18T01:42:41;26.30;;;12.13;;
7523;SDS011;3803;51.666;7.630;2023-11-18T01:43:03;20.42;;;12.05;;
7523;SDS011;3803;51.666;7.630;2023-11-18T01:43:32;22.23;;;12.68;;
7523;SDS011;3803;51.666;7.630;2023-11-18T01:43:53;23.10;;;12.95;;
7523;SDS011;3803;51.666;7.630;2023-11-18T01:44:13;25.20;;;13.63;;
7523;SDS011;3803;51.666;7.630;2023-11-18T01:44:34;25.30;;;13.60;;
7523;SDS011;3803;51.666;7.630;2023-11-18T01:44:55;26.60;;;13.95;;
7523;SDS011;3803;51.666;7.630;2023-11-18T01:45:16;24.15;;;12.63;;
7523;SDS011;3803;51.666;7.630;2023-11-18T01:45:37;25.98;;;12.85;;
7523;SDS011;3803;51.666;7.630;2023-11-18T01:45:59;23.80;;;12.90;;
7523;SDS011;3803;51.666;7.630;2023-11-18T01:46:23;25.85;;;13.50;;
7523;SDS011;3803;51.666;7.630;2023-11-18T01:46:44;24.58;;;13.15;;
7523;SDS011;3803;51.666;7.630;2023-11-18T01:47:06;23.50;;;12.88;;
7523;SDS011;3803;51.666;7.630;2023-11-18T01:47:31;19.52;;;12.15;;
7523;SDS011;3803;51.666;7.630;2023-11-18T01:47:53;22.85;;;12.45;;
7523;SDS011;3803;51.666;7.630;2023-11-18T01:48:15;21.88;;;11.57;;
7523;SDS011;3803;51.666;7.630;2023-11-18T01:48:36;26.20;;;12.45;;
7523;SDS011;3803;51.666;7.630;2023-11-18T01:48:57;22.77;;;11.77;;
7523;SDS011;3803;51.666;7.630;2023-11-18T01:49:19;24.13;;;12.65;;
7523;SDS011;3803;51.666;7.630;2023-11-18T01:49:41;23.58;;;13.05;;
7523;SDS011;3803;51.666;7.630;2023-11-18T01:50:02;25.17;;;13.48;;
7523;SDS011;3803;51.666;7.630;2023-11-18T01:50:26;25.25;;;12.52;;
7523;SDS011;3803;51.666;7.630;2023-11-18T01:50:46;24.88;;;12.50;;
7523;SDS011;3803;51.666;7.630;2023-11-18T01:51:07;22.40;;;12.00;;
7523;SDS011;3803;51.666;7.630;2023-11-18T01:51:32;22.73;;;12.07;;
7523;SDS011;3803;51.666;7.630;2023-11-18T01:51:55;21.13;;;11.43;;
7523;SDS011;3803;51.666;7.630;2023-11-18T01:53:22;22.20;;;12.70;;
7523;SDS011;3803;51.666;7.630;2023-11-18T01:53:44;27.35;;;12.95;;
7523;SDS011;3803;51.666;7.630;2023-11-18T01:54:07;26.42;;;12.75;;
7523;SDS011;3803;51.666;7.630;2023-11-18T01:54:36;22.90;;;13.10;;
7523;SDS011;3803;51.666;7.630;2023-11-18T01:54:58;24.45;;;12.65;;
7523;SDS011;3803;51.666;7.630;2023-11-18T01:55:20;24.63;;;12.30;;
7523;SDS011;3803;51.666;7.630;2023-11-18T01:55:41;23.75;;;11.73;;
7523;SDS011;3803;51.666;7.630;2023-11-18T01:56:02;21.65;;;11.45;;
7523;SDS011;3803;51.666;7.630;2023-11-18T01:56:25;21.23;;;11.68;;
7523;SDS011;3803;51.666;7.630;2023-11-18T01:56:48;19.40;;;11.00;;
7523;SDS011;3803;51.666;7.630;2023-11-18T01:57:10;19.30;;;10.70;;
7523;SDS011;3803;51.666;7.630;2023-11-18T01:57:31;19.40;;;10.85;;
7523;SDS011;3803;51.666;7.630;2023-11-18T01:57:53;19.00;;;11.63;;
7523;SDS011;3803;51.666;7.630;2023-11-18T01:58:14;18.00;;;11.80;;
7523;SDS011;3803;51.666;7.630;2023-11-18T01:58:40;18.45;;;11.90;;
7523;SDS011;3803;51.666;7.630;2023-11-18T01:59:01;19.98;;;12.23;;
7523;SDS011;3803;51.666;7.630;2023-11-18T01:59:24;23.25;;;13.38;;
7523;SDS011;3803;51.666;7.630;2023-11-18T01:59:46;21.25;;;12.82;;
7523;SDS011;3803;51.666;7.630;2023-11-18T02:00:07;18.83;;;11.73;;
7523;SDS011;3803;51.666;7.630;2023-11-18T02:00:36;18.17;;;11.60;;
7523;SDS011;3803;51.666;7.630;2023-11-18T02:01:00;20.83;;;11.65;;
7523;SDS011;3803;51.666;7.630;2023-11-18T02:01:21;21.52;;;11.27;;
7523;SDS011;3803;51.666;7.630;2023-11-18T02:01:43;19.65;;;10.80;;
7523;SDS011;3803;51.666;7.630;2023-11-18T02:02:14;18.15;;;11.90;;
7523;SDS011;3803;51.666;7.630;2023-11-18T02:02:34;18.67;;;12.20;;
7523;SDS011;3803;51.666;7.630;2023-11-18T02:02:57;21.45;;;12.77;;
7523;SDS011;3803;51.666;7.630;2023-11-18T02:03:18;22.23;;;12.80;;
7523;SDS011;3803;51.666;7.630;2023-11-18T02:03:40;21.45;;;11.73;;
7523;SDS011;3803;51.666;7.630;2023-11-18T02:04:03;21.50;;;11.82;;
7523;SDS011;3803;51.666;7.630;2023-11-18T02:04:26;20.75;;;11.85;;
7523;SDS011;3803;51.666;7.630;2023-11-18T02:04:48;20.88;;;12.25;;
7523;SDS011;3803;51.666;7.630;2023-11-18T02:05:09;20.17;;;12.38;;
7523;SDS011;3803;51.666;7.630;2023-11-18T02:05:33;17.35;;;11.18;;
7523;SDS011;3803;51.666;7.630;2023-11-18T02:05:54;16.60;;;10.90;;
7523;SDS011;3803;51.666;7.630;2023-11-18T02:06:15;18.80;;;10.98;;
7523;SDS011;3803;51.666;7.630;2023-11-18T02:06:37;20.67;;;11.73;;
7523;SDS011;3803;51.666;7.630;2023-11-18T02:06:58;22.45;;;11.93;;
7523;SDS011;3803;51.666;7.630;2023-11-18T02:07:19;22.08;;;12.45;;
7523;SDS011;3803;51.666;7.630;2023-11-18T02:07:41;21.52;;;11.85;;
7523;SDS011;3803;51.666;7.630;2023-11-18T02:08:02;19.73;;;11.15;;
7523;SDS011;3803;51.666;7.630;2023-11-18T02:08:30;22.05;;;11.57;;
7523;SDS011;3803;51.666;7.630;2023-11-18T02:08:51;23.65;;;12.45;;
7523;SDS011;3803;51.666;7.630;2023-11-18T02:09:12;22.27;;;12.60;;
7523;SDS011;3803;51.666;7.630;2023-11-18T02:09:33;19.30;;;11.73;;
7523;SDS011;3803;51.666;7.630;2023-11-18T02:09:55;21.63;;;11.93;;
7523;SDS011;3803;51.666;7.630;2023-11-18T02:10:15;19.45;;;11.05;;
7523;SDS011;3803;51.666;7.630;2023-11-18T02:10:47;18.55;;;10.70;;
7523;SDS011;3803;51.666;7.630;2023-11-18T02:11:18;20.17;;;10.95;;
7523;SDS011;3803;51.666;7.630;2023-11-18T02:13:24;17.63;;;10.55;;